Time;durP1;ratioP1;P1;durP2;ratioP2;P2;SDS_P1;SDS_P2;PMS_P1;PMS_P2;Temp;Humidity;BMP_temperature;BMP_pressure;BME280_temperature;BME280_humidity;BME280_pressure;Samples;Min_cycle;Max_cycle;Signal;HPM_P1;HPM_P2
2023/01/29 00:01:06;;;;;;;5.13;4.00;;;5.20;99.90;;;;;;5072083;28;20137;-33
2023/01/29 00:03:32;;;;;;;6.50;4.47;;;5.20;99.90;;;;;;5072049;28;20387;-36
2023/01/29 00:06:03;;;;;;;5.20;4.20;;;5.30;99.90;;;;;;5071648;28;20466;-40
2023/01/29 00:08:29;;;;;;;6.10;4.57;;;5.50;99.90;;;;;;5071940;28;20032;-31
2023/01/29 00:11:01;;;;;;;4.97;3.90;;;5.70;99.90;;;;;;5071912;28;20034;-36
2023/01/29 00:13:27;;;;;;;5.55;4.03;;;5.90;99.90;;;;;;5072171;28;20024;-40
2023/01/29 00:15:57;;;;;;;4.65;3.97;;;6.10;99.90;;;;;;5072018;28;20108;-39
2023/01/29 00:18:24;;;;;;;4.68;4.05;;;6.10;99.90;;;;;;5071726;28;20040;-36
2023/01/29 00:20:50;;;;;;;5.45;4.00;;;6.10;99.90;;;;;;5071634;28;20088;-34
2023/01/29 00:23:16;;;;;;;6.70;3.92;;;6.00;99.90;;;;;;5071911;28;20096;-33
2023/01/29 00:25:42;;;;;;;4.60;3.78;;;5.90;99.90;;;;;;5071370;28;20108;-39
2023/01/29 00:28:07;;;;;;;4.85;3.70;;;5.90;99.90;;;;;;5071735;28;20478;-40
2023/01/29 00:30:34;;;;;;;5.85;4.07;;;5.80;99.90;;;;;;5071887;28;20074;-40
2023/01/29 00:33:00;;;;;;;4.47;3.65;;;5.70;99.90;;;;;;5071300;28;20099;-33
2023/01/29 00:35:25;;;;;;;6.43;3.92;;;5.60;99.90;;;;;;5071837;28;20103;-42
2023/01/29 00:37:51;;;;;;;6.63;4.47;;;5.50;99.90;;;;;;5071570;28;20440;-34
2023/01/29 00:40:17;;;;;;;5.60;3.95;;;5.50;99.90;;;;;;5071589;28;20033;-41
2023/01/29 00:45:29;;;;;;;5.00;3.70;;;5.40;99.90;;;;;;5072039;28;20047;-34
2023/01/29 00:47:55;;;;;;;5.35;3.90;;;5.30;99.90;;;;;;5072104;28;20029;-33
2023/01/29 00:50:21;;;;;;;6.53;3.60;;;5.30;99.90;;;;;;5071499;28;20394;-32
2023/01/29 00:52:48;;;;;;;5.88;4.13;;;5.30;99.90;;;;;;5072154;28;20028;-32
2023/01/29 00:55:14;;;;;;;6.38;4.15;;;5.30;99.90;;;;;;5071155;28;20386;-39
2023/01/29 00:57:40;;;;;;;5.63;4.03;;;5.20;99.90;;;;;;5070857;28;20024;-39
2023/01/29 01:00:09;;;;;;;6.10;4.68;;;5.20;99.90;;;;;;5070094;28;20056;-31
2023/01/29 01:05:19;;;;;;;5.57;4.00;;;5.30;99.90;;;;;;5071529;28;20509;-31
2023/01/29 01:07:52;;;;;;;5.15;4.05;;;5.40;99.90;;;;;;5070902;28;20037;-38
2023/01/29 01:10:30;;;;;;;4.33;3.47;;;5.60;99.90;;;;;;5071068;28;20032;-35
2023/01/29 01:13:05;;;;;;;6.18;3.80;;;5.90;99.90;;;;;;5071181;28;20040;-35
2023/01/29 01:15:35;;;;;;;4.65;3.60;;;6.10;99.90;;;;;;5071402;28;20116;-41
2023/01/29 01:18:01;;;;;;;4.95;3.55;;;6.10;99.90;;;;;;5071013;28;20017;-40
2023/01/29 01:20:29;;;;;;;5.10;4.10;;;6.10;99.90;;;;;;5070985;28;20063;-41
2023/01/29 01:22:55;;;;;;;4.25;3.47;;;6.00;99.90;;;;;;5071029;28;20306;-33
2023/01/29 01:25:22;;;;;;;4.85;4.03;;;5.90;99.90;;;;;;5071129;28;20032;-42
2023/01/29 01:27:52;;;;;;;4.47;3.60;;;5.80;99.90;;;;;;5070769;28;20502;-34
2023/01/29 01:30:17;;;;;;;5.43;4.05;;;5.80;99.90;;;;;;5070883;28;20036;-40
2023/01/29 01:32:43;;;;;;;4.93;3.60;;;5.70;99.90;;;;;;5070621;28;20032;-38
2023/01/29 01:35:10;;;;;;;4.88;3.88;;;5.60;99.90;;;;;;5070836;28;20155;-38
2023/01/29 01:37:36;;;;;;;4.78;3.42;;;5.50;99.90;;;;;;5070596;28;20042;-39
2023/01/29 01:40:04;;;;;;;4.40;3.70;;;5.50;99.90;;;;;;5070771;28;20025;-42
2023/01/29 01:42:30;;;;;;;4.53;3.60;;;5.40;99.90;;;;;;5070879;28;20036;-34
2023/01/29 01:45:04;;;;;;;5.72;4.03;;;5.40;99.90;;;;;;5070805;28;20033;-41
2023/01/29 01:47:32;;;;;;;4.40;3.70;;;5.40;99.90;;;;;;5070505;28;20443;-32
2023/01/29 01:50:02;;;;;;;4.82;3.45;;;5.30;99.90;;;;;;5071740;28;20494;-36
2023/01/29 01:52:30;;;;;;;5.30;3.92;;;5.20;99.90;;;;;;5070727;28;20031;-40
2023/01/29 01:54:57;;;;;;;4.80;3.55;;;5.20;99.90;;;;;;5071344;28;20397;-34
2023/01/29 01:57:27;;;;;;;5.43;4.03;;;5.20;99.90;;;;;;5074217;28;20021;-33
2023/01/29 01:59:58;;;;;;;4.80;4.05;;;5.20;99.90;;;;;;5074228;28;20036;-42
2023/01/29 02:10:45;;;;;;;6.07;3.72;;;5.60;99.90;;;;;;5074495;28;20036;-35
2023/01/29 02:13:11;;;;;;;4.97;4.00;;;5.90;99.90;;;;;;5074230;28;20450;-33
2023/01/29 02:15:40;;;;;;;3.88;3.42;;;6.10;99.90;;;;;;5075709;28;20496;-38
2023/01/29 02:18:08;;;;;;;5.03;3.63;;;6.10;99.90;;;;;;5073937;28;20103;-42
2023/01/29 02:20:34;;;;;;;4.25;3.60;;;6.10;99.90;;;;;;5073848;28;20024;-35
2023/01/29 02:23:25;;;;;;;5.28;3.63;;;6.10;99.90;;;;;;5073999;28;20483;-39
2023/01/29 02:26:00;;;;;;;4.45;3.58;;;6.00;99.90;;;;;;5074842;28;20036;-39
2023/01/29 02:28:25;;;;;;;4.07;3.40;;;5.90;99.90;;;;;;5073811;28;20025;-34
2023/01/29 02:30:51;;;;;;;4.50;3.72;;;5.80;99.90;;;;;;5073803;28;20075;-40
2023/01/29 02:33:21;;;;;;;4.10;3.55;;;5.70;99.90;;;;;;5073658;28;20039;-39
2023/01/29 02:36:20;;;;;;;4.00;3.53;;;5.60;99.90;;;;;;5073602;28;20120;-40
2023/01/29 02:38:53;;;;;;;4.03;3.17;;;5.60;99.90;;;;;;5073664;28;20039;-38
2023/01/29 02:41:39;;;;;;;3.75;3.30;;;5.50;99.90;;;;;;5073671;28;20016;-42
2023/01/29 02:44:32;;;;;;;5.32;3.97;;;5.50;99.90;;;;;;5073881;28;20458;-42
2023/01/29 02:47:20;;;;;;;4.40;3.38;;;5.40;99.90;;;;;;5072689;28;20068;-38
2023/01/29 02:49:52;;;;;;;4.68;3.40;;;5.30;99.90;;;;;;5073336;28;20051;-37
2023/01/29 02:52:35;;;;;;;5.68;3.80;;;5.30;99.90;;;;;;5073451;28;20104;-38
2023/01/29 02:55:09;;;;;;;3.60;3.30;;;5.30;99.90;;;;;;5073382;28;20021;-32
2023/01/29 02:57:38;;;;;;;5.00;3.72;;;5.20;99.90;;;;;;5073049;28;20406;-36
2023/01/29 03:00:23;;;;;;;4.88;3.70;;;5.20;99.90;;;;;;5073241;28;20021;-35
2023/01/29 03:03:07;;;;;;;4.75;3.72;;;5.20;99.90;;;;;;5073298;28;20028;-38
2023/01/29 03:05:43;;;;;;;4.60;3.58;;;5.20;99.90;;;;;;5073140;28;20524;-39
2023/01/29 03:08:14;;;;;;;3.85;3.22;;;5.40;99.90;;;;;;5073614;28;20074;-39
2023/01/29 03:11:03;;;;;;;4.85;3.95;;;5.60;99.90;;;;;;5072964;28;20070;-33
2023/01/29 03:13:40;;;;;;;5.35;3.83;;;5.90;99.90;;;;;;5072763;28;20110;-36
2023/01/29 03:16:31;;;;;;;4.28;3.35;;;6.10;99.90;;;;;;5072769;28;20543;-35
2023/01/29 03:19:19;;;;;;;4.97;3.40;;;6.20;99.90;;;;;;5072862;28;20025;-33
2023/01/29 03:21:57;;;;;;;3.95;3.10;;;6.10;99.90;;;;;;5072990;28;20021;-32
2023/01/29 03:33:05;;;;;;;4.35;3.50;;;5.70;99.90;;;;;;5072696;28;20082;-42
2023/01/29 03:35:35;;;;;;;4.97;3.33;;;5.70;99.90;;;;;;5072359;28;20031;-34
2023/01/29 03:38:09;;;;;;;4.60;3.63;;;5.60;99.90;;;;;;5072383;28;20049;-40
2023/01/29 03:40:47;;;;;;;4.32;3.33;;;5.50;99.90;;;;;;5072475;28;20103;-33
2023/01/29 03:43:41;;;;;;;4.72;3.70;;;5.40;99.90;;;;;;5073637;28;20025;-39
2023/01/29 03:46:17;;;;;;;4.90;3.65;;;5.40;99.90;;;;;;5072282;28;20050;-36
2023/01/29 03:48:49;;;;;;;3.42;3.10;;;5.30;99.90;;;;;;5073059;28;20035;-31
2023/01/29 03:51:40;;;;;;;5.28;3.50;;;5.30;99.90;;;;;;5073112;28;20063;-40
2023/01/29 03:54:19;;;;;;;5.57;3.47;;;5.20;99.90;;;;;;5072249;28;20062;-33
2023/01/29 03:57:04;;;;;;;5.38;3.50;;;5.20;99.90;;;;;;5071982;28;20020;-40
2023/01/29 03:59:37;;;;;;;4.10;3.10;;;5.20;99.90;;;;;;5072046;28;20036;-41
2023/01/29 04:02:10;;;;;;;4.63;3.00;;;5.20;99.90;;;;;;5072102;28;20111;-34
2023/01/29 04:04:40;;;;;;;4.40;3.65;;;5.20;99.90;;;;;;5071914;28;20115;-37
2023/01/29 04:07:22;;;;;;;5.07;3.90;;;5.40;99.90;;;;;;5072642;28;20035;-39
2023/01/29 04:10:06;;;;;;;6.70;3.65;;;5.50;99.90;;;;;;5071946;28;20063;-39
2023/01/29 04:12:50;;;;;;;4.40;3.17;;;5.80;99.90;;;;;;5071953;28;20032;-41
2023/01/29 04:15:16;;;;;;;5.25;3.72;;;6.00;99.90;;;;;;5071688;28;20032;-37
2023/01/29 04:17:52;;;;;;;5.60;3.75;;;6.20;99.90;;;;;;5070997;28;20025;-39
2023/01/29 04:20:19;;;;;;;3.97;3.35;;;6.10;99.90;;;;;;5071742;28;20036;-38
2023/01/29 04:22:47;;;;;;;5.88;3.28;;;6.10;99.90;;;;;;5071725;28;20067;-42
2023/01/29 04:25:16;;;;;;;4.68;3.30;;;6.00;99.90;;;;;;5072109;28;20070;-33
2023/01/29 04:28:09;;;;;;;4.93;3.50;;;5.90;99.90;;;;;;5071289;28;20017;-38
2023/01/29 04:31:03;;;;;;;4.43;3.38;;;5.80;99.90;;;;;;5071874;28;20064;-33
2023/01/29 04:34:11;;;;;;;4.70;3.53;;;5.70;99.90;;;;;;5071602;28;20562;-33
2023/01/29 04:36:59;;;;;;;4.75;3.40;;;5.60;99.90;;;;;;5071713;28;20606;-42
2023/01/29 04:39:47;;;;;;;3.25;2.95;;;5.50;99.90;;;;;;5071430;28;20051;-34
2023/01/29 04:42:27;;;;;;;4.90;3.50;;;5.40;99.90;;;;;;5071466;28;20020;-41
2023/01/29 04:45:29;;;;;;;3.90;3.20;;;5.40;99.90;;;;;;5071320;28;20479;-38
2023/01/29 04:48:12;;;;;;;5.50;3.58;;;5.30;99.90;;;;;;5069926;28;20064;-40
2023/01/29 04:50:53;;;;;;;4.25;3.60;;;5.30;99.90;;;;;;5071243;28;20103;-31
2023/01/29 04:53:36;;;;;;;5.22;3.80;;;5.20;99.90;;;;;;5071290;28;20028;-32
2023/01/29 04:56:28;;;;;;;4.30;3.50;;;5.20;99.90;;;;;;5071193;28;20496;-41
2023/01/29 04:59:19;;;;;;;3.67;3.25;;;5.20;99.90;;;;;;5070717;28;20076;-42
2023/01/29 05:01:46;;;;;;;4.30;3.55;;;5.20;99.90;;;;;;5071330;28;20025;-41
2023/01/29 05:04:15;;;;;;;4.50;3.53;;;5.20;99.90;;;;;;5071207;28;20028;-32
2023/01/29 05:06:42;;;;;;;4.50;3.38;;;5.30;99.90;;;;;;5070978;28;20050;-39
2023/01/29 05:09:08;;;;;;;4.38;3.80;;;5.50;99.90;;;;;;5071158;28;20032;-34
2023/01/29 05:11:35;;;;;;;4.93;3.38;;;5.70;99.90;;;;;;5071555;28;20020;-32
2023/01/29 05:14:04;;;;;;;3.90;3.35;;;5.90;99.90;;;;;;5071523;28;20025;-36
2023/01/29 05:16:40;;;;;;;4.28;3.38;;;6.10;99.90;;;;;;5070939;28;20066;-34
2023/01/29 05:19:11;;;;;;;4.00;3.47;;;6.10;99.90;;;;;;5071117;28;20482;-34
2023/01/29 05:21:38;;;;;;;3.80;3.22;;;6.10;99.90;;;;;;5071157;28;20025;-31
2023/01/29 05:24:08;;;;;;;4.10;3.60;;;6.00;99.90;;;;;;5070855;28;20367;-32
2023/01/29 05:29:19;;;;;;;3.80;3.40;;;5.80;99.90;;;;;;5072453;28;20405;-35
2023/01/29 05:31:45;;;;;;;6.32;3.40;;;5.70;99.90;;;;;;5074981;28;20067;-42
2023/01/29 05:34:10;;;;;;;4.60;3.40;;;5.70;99.90;;;;;;5074864;28;20060;-39
2023/01/29 05:36:36;;;;;;;3.63;3.17;;;5.60;99.90;;;;;;5074571;28;20387;-42
2023/01/29 05:39:02;;;;;;;4.72;3.47;;;5.50;99.90;;;;;;5075063;28;20025;-40
2023/01/29 05:41:27;;;;;;;4.35;3.38;;;5.50;99.90;;;;;;5074789;28;20417;-42
2023/01/29 05:43:53;;;;;;;4.20;3.08;;;5.40;99.90;;;;;;5075040;28;20036;-37
2023/01/29 05:46:19;;;;;;;4.22;3.58;;;5.40;99.90;;;;;;5075402;28;20067;-40
2023/01/29 05:48:44;;;;;;;4.13;3.70;;;5.30;99.90;;;;;;5074628;28;20098;-41
2023/01/29 05:51:10;;;;;;;4.13;3.47;;;5.30;99.90;;;;;;5074492;28;20382;-33
2023/01/29 05:53:35;;;;;;;4.10;3.42;;;5.20;99.90;;;;;;5074659;28;20032;-31
2023/01/29 05:56:03;;;;;;;3.83;3.35;;;5.20;99.90;;;;;;5074530;28;20025;-35
2023/01/29 05:58:32;;;;;;;4.60;3.60;;;5.20;99.90;;;;;;5074379;28;20034;-39
2023/01/29 06:01:15;;;;;;;4.57;3.88;;;5.10;99.90;;;;;;5074864;28;20094;-42
2023/01/29 06:03:41;;;;;;;4.13;3.65;;;5.20;99.90;;;;;;5075058;28;20086;-35
2023/01/29 06:06:08;;;;;;;4.82;3.20;;;5.30;99.90;;;;;;5074258;28;20118;-42
2023/01/29 06:08:34;;;;;;;4.97;3.28;;;5.40;99.90;;;;;;5074638;28;20072;-41
2023/01/29 06:11:00;;;;;;;3.88;3.17;;;5.60;99.90;;;;;;5074925;28;20033;-38
2023/01/29 06:13:25;;;;;;;3.83;3.35;;;5.80;99.90;;;;;;5074218;28;20107;-33
2023/01/29 06:15:51;;;;;;;4.35;3.47;;;6.00;99.90;;;;;;5073895;28;20433;-41
2023/01/29 06:18:17;;;;;;;4.30;3.53;;;6.00;99.90;;;;;;5074399;28;20055;-40
2023/01/29 06:20:42;;;;;;;3.60;3.15;;;6.00;99.90;;;;;;5073972;28;20016;-34
2023/01/29 06:23:08;;;;;;;4.57;3.33;;;5.90;99.90;;;;;;5074011;28;20074;-37
2023/01/29 06:25:33;;;;;;;3.63;3.13;;;5.90;99.90;;;;;;5073863;28;20144;-42
2023/01/29 06:27:59;;;;;;;5.28;3.60;;;5.70;99.90;;;;;;5075004;28;20036;-33
2023/01/29 06:30:27;;;;;;;3.70;3.13;;;5.70;99.90;;;;;;5074191;28;20032;-40
2023/01/29 06:32:55;;;;;;;4.05;3.25;;;5.60;99.90;;;;;;5073778;28;20429;-38
2023/01/29 06:35:21;;;;;;;4.03;3.30;;;5.50;99.90;;;;;;5074073;28;20452;-34
2023/01/29 06:37:47;;;;;;;3.85;3.05;;;5.50;99.90;;;;;;5073626;28;20525;-37
2023/01/29 06:40:12;;;;;;;5.05;4.03;;;5.40;99.90;;;;;;5073216;28;20049;-34
2023/01/29 06:42:38;;;;;;;3.40;3.10;;;5.40;99.90;;;;;;5073846;28;20025;-43
2023/01/29 06:45:04;;;;;;;4.45;3.35;;;5.30;99.90;;;;;;5073516;28;20021;-41
2023/01/29 06:47:29;;;;;;;4.60;3.50;;;5.30;99.90;;;;;;5074734;28;20032;-42
2023/01/29 06:49:55;;;;;;;4.07;3.53;;;5.20;99.90;;;;;;5073511;28;20056;-39
2023/01/29 06:52:21;;;;;;;4.32;3.50;;;5.20;99.90;;;;;;5073941;28;20029;-40
2023/01/29 06:54:46;;;;;;;3.70;3.20;;;5.20;99.90;;;;;;5073390;28;20551;-42
2023/01/29 06:57:12;;;;;;;5.57;3.83;;;5.20;99.90;;;;;;5074108;28;20409;-33
2023/01/29 06:59:37;;;;;;;5.03;3.72;;;5.10;99.90;;;;;;5074100;28;20046;-36
2023/01/29 07:02:03;;;;;;;4.35;3.58;;;5.10;99.90;;;;;;5073240;28;20107;-38
2023/01/29 07:04:29;;;;;;;4.05;3.40;;;5.10;99.90;;;;;;5073331;28;20029;-34
2023/01/29 07:06:54;;;;;;;3.90;3.13;;;5.30;99.90;;;;;;5074458;28;20083;-42
2023/01/29 07:09:20;;;;;;;3.63;3.30;;;5.50;99.90;;;;;;5073571;28;20021;-41
2023/01/29 07:11:46;;;;;;;3.97;3.53;;;5.70;99.90;;;;;;5073199;28;20041;-41
2023/01/29 07:14:12;;;;;;;5.28;3.65;;;5.90;99.90;;;;;;5073795;28;20055;-37
2023/01/29 07:16:38;;;;;;;4.43;3.53;;;6.00;99.90;;;;;;5073296;28;20475;-42
2023/01/29 07:19:03;;;;;;;4.00;3.30;;;6.00;99.90;;;;;;5072924;28;20029;-36
2023/01/29 07:21:29;;;;;;;3.83;3.30;;;6.00;99.90;;;;;;5073650;28;20378;-32
2023/01/29 07:23:55;;;;;;;4.03;3.10;;;5.90;99.90;;;;;;5072947;28;20517;-38
2023/01/29 07:26:20;;;;;;;4.82;3.58;;;5.80;99.90;;;;;;5073272;28;20024;-33
2023/01/29 07:28:46;;;;;;;3.88;3.15;;;5.80;99.90;;;;;;5073819;28;20400;-34
2023/01/29 07:31:13;;;;;;;3.85;3.47;;;5.70;99.90;;;;;;5072589;28;20021;-39
2023/01/29 07:33:39;;;;;;;4.32;3.47;;;5.60;99.90;;;;;;5072642;28;20530;-40
2023/01/29 07:36:09;;;;;;;3.72;3.35;;;5.50;99.90;;;;;;5072432;28;20035;-37
2023/01/29 07:38:35;;;;;;;4.82;3.50;;;5.50;99.90;;;;;;5072615;28;20096;-40
2023/01/29 07:41:00;;;;;;;3.60;3.15;;;5.40;99.90;;;;;;5072520;28;20492;-40
2023/01/29 07:43:26;;;;;;;5.18;3.50;;;5.40;99.90;;;;;;5071079;28;20094;-33
2023/01/29 07:45:51;;;;;;;5.18;3.60;;;5.30;99.90;;;;;;5072163;28;20111;-41
2023/01/29 07:48:17;;;;;;;3.72;3.22;;;5.30;99.90;;;;;;5072778;28;20016;-36
2023/01/29 07:50:43;;;;;;;4.93;4.18;;;5.20;99.90;;;;;;5072277;28;20142;-32
2023/01/29 07:53:14;;;;;;;3.95;3.50;;;5.20;99.90;;;;;;5071407;28;20063;-41
2023/01/29 07:55:42;;;;;;;4.53;3.95;;;5.20;99.90;;;;;;5072264;28;20036;-40
2023/01/29 07:58:08;;;;;;;3.63;3.05;;;5.10;99.90;;;;;;5071785;28;20032;-35
2023/01/29 08:00:34;;;;;;;4.05;3.45;;;5.10;99.90;;;;;;5072539;28;20027;-38
2023/01/29 08:03:09;;;;;;;5.13;3.65;;;5.10;99.90;;;;;;5072169;28;20067;-39
2023/01/29 08:05:35;;;;;;;5.20;3.67;;;5.10;99.90;;;;;;5072085;28;20078;-34
2023/01/29 08:08:01;;;;;;;5.32;4.18;;;5.10;99.90;;;;;;5072043;28;20028;-39
2023/01/29 08:10:27;;;;;;;5.55;3.88;;;5.00;99.90;;;;;;5072768;28;20107;-35
2023/01/29 08:12:55;;;;;;;5.18;4.13;;;5.00;99.90;;;;;;5072676;28;20067;-37
2023/01/29 08:15:21;;;;;;;4.97;3.78;;;5.00;99.90;;;;;;5071778;28;20028;-41
2023/01/29 08:17:46;;;;;;;4.82;4.20;;;5.00;99.90;;;;;;5071897;28;20379;-32
2023/01/29 08:20:12;;;;;;;4.32;3.88;;;5.00;99.90;;;;;;5070580;28;20471;-32
2023/01/29 08:22:37;;;;;;;5.15;4.07;;;5.00;99.90;;;;;;5071718;28;20028;-39
2023/01/29 08:25:03;;;;;;;4.72;3.70;;;5.00;99.90;;;;;;5071668;28;20433;-34
2023/01/29 08:27:29;;;;;;;4.75;3.80;;;5.00;99.90;;;;;;5071410;28;20100;-41
2023/01/29 08:29:55;;;;;;;4.82;3.78;;;5.00;99.90;;;;;;5072344;28;20515;-32
2023/01/29 08:32:20;;;;;;;5.47;4.10;;;5.00;99.90;;;;;;5071647;28;20112;-33
2023/01/29 08:34:46;;;;;;;5.35;3.88;;;5.00;99.90;;;;;;5071489;28;20032;-42
2023/01/29 08:37:11;;;;;;;4.63;3.65;;;4.90;99.90;;;;;;5071325;28;20486;-33
2023/01/29 08:39:37;;;;;;;4.60;3.95;;;4.90;99.90;;;;;;5071464;28;20132;-38
2023/01/29 08:42:03;;;;;;;4.28;3.67;;;4.90;99.90;;;;;;5071471;28;20429;-42
2023/01/29 08:44:28;;;;;;;3.92;3.53;;;4.90;99.90;;;;;;5071503;28;20028;-38
2023/01/29 08:46:54;;;;;;;4.88;3.85;;;4.90;99.90;;;;;;5071175;28;20020;-37
2023/01/29 08:49:20;;;;;;;4.38;3.80;;;4.90;99.90;;;;;;5071334;28;20066;-35
2023/01/29 08:51:45;;;;;;;4.50;3.83;;;4.90;99.90;;;;;;5071386;28;20074;-31
2023/01/29 08:54:11;;;;;;;4.65;4.00;;;4.90;99.90;;;;;;5071264;28;20429;-34
2023/01/29 08:56:36;;;;;;;4.97;3.95;;;4.90;99.90;;;;;;5070959;28;20024;-40
2023/01/29 08:59:02;;;;;;;4.95;3.47;;;4.90;99.90;;;;;;5071126;28;20397;-37
2023/01/29 09:01:28;;;;;;;4.47;3.90;;;4.90;99.90;;;;;;5071399;28;20025;-33
2023/01/29 09:03:53;;;;;;;4.63;3.88;;;4.90;99.90;;;;;;5070874;28;20474;-42
2023/01/29 09:06:19;;;;;;;5.95;4.05;;;4.90;99.90;;;;;;5071025;28;20067;-40
2023/01/29 09:08:44;;;;;;;4.68;3.90;;;4.90;99.90;;;;;;5071185;28;20551;-35
2023/01/29 09:11:10;;;;;;;4.28;3.58;;;4.90;99.90;;;;;;5071140;28;20284;-36
2023/01/29 09:13:35;;;;;;;4.90;3.90;;;4.90;99.90;;;;;;5071635;28;20081;-36
2023/01/29 09:16:02;;;;;;;4.53;3.90;;;5.00;99.90;;;;;;5070920;28;20059;-34
2023/01/29 09:18:29;;;;;;;4.43;3.65;;;5.20;99.90;;;;;;5071371;28;20064;-31
2023/01/29 09:20:55;;;;;;;4.70;3.70;;;5.40;99.90;;;;;;5071093;28;20028;-31
2023/01/29 09:23:20;;;;;;;5.22;3.78;;;5.70;99.90;;;;;;5071080;28;20024;-34
2023/01/29 09:25:46;;;;;;;3.92;3.53;;;5.90;99.90;;;;;;5070795;28;20434;-32
2023/01/29 09:28:12;;;;;;;5.85;4.55;;;6.00;99.90;;;;;;5070770;28;20036;-41
2023/01/29 09:30:38;;;;;;;4.40;3.72;;;6.00;99.90;;;;;;5071029;28;20074;-42
2023/01/29 09:33:05;;;;;;;4.80;3.90;;;6.00;99.90;;;;;;5071371;28;20554;-40
2023/01/29 09:35:30;;;;;;;4.40;3.80;;;5.90;99.90;;;;;;5070799;28;20371;-34
2023/01/29 09:37:56;;;;;;;4.82;3.67;;;5.90;99.90;;;;;;5070802;28;20032;-38
2023/01/29 09:40:42;;;;;;;4.30;3.70;;;5.80;99.90;;;;;;5070698;28;20032;-34
2023/01/29 09:43:22;;;;;;;4.25;3.78;;;5.70;99.90;;;;;;5071058;28;20020;-35
2023/01/29 09:46:38;;;;;;;4.85;3.72;;;5.70;99.90;;;;;;5070717;28;20103;-35
2023/01/29 09:49:25;;;;;;;4.68;3.60;;;5.90;99.90;;;;;;5069625;28;20170;-34
2023/01/29 09:51:57;;;;;;;4.88;4.10;;;6.00;99.90;;;;;;5070801;28;20021;-42
2023/01/29 09:54:54;;;;;;;5.35;4.20;;;6.00;99.90;;;;;;5070696;28;20028;-34
2023/01/29 09:57:51;;;;;;;4.13;3.70;;;5.90;99.90;;;;;;5070526;28;20036;-35
2023/01/29 10:00:24;;;;;;;5.43;4.07;;;5.80;99.90;;;;;;5070647;28;20036;-35
2023/01/29 10:03:11;;;;;;;4.93;3.70;;;5.80;99.90;;;;;;5072178;28;20103;-32
2023/01/29 10:05:42;;;;;;;4.88;4.00;;;5.80;99.90;;;;;;5071075;28;20390;-32
2023/01/29 10:08:47;;;;;;;5.20;4.00;;;5.90;99.90;;;;;;5070886;28;20028;-40
2023/01/29 10:11:28;;;;;;;5.30;4.05;;;6.00;99.90;;;;;;5070653;28;20032;-34
2023/01/29 10:14:07;;;;;;;4.75;4.00;;;6.00;99.90;;;;;;5070561;28;20048;-42
2023/01/29 10:16:32;;;;;;;4.85;3.95;;;6.00;99.90;;;;;;5072033;28;20028;-42
2023/01/29 10:19:23;;;;;;;5.03;4.13;;;5.90;99.90;;;;;;5074043;28;20024;-40
2023/01/29 10:22:07;;;;;;;4.88;3.72;;;5.80;99.90;;;;;;5074029;28;20032;-32
2023/01/29 10:24:49;;;;;;;4.80;3.95;;;5.80;99.90;;;;;;5074476;28;20033;-33
2023/01/29 10:27:17;;;;;;;5.68;3.88;;;5.90;99.90;;;;;;5073829;28;20024;-35
2023/01/29 10:29:44;;;;;;;5.68;4.28;;;6.10;99.90;;;;;;5073899;28;20025;-33
2023/01/29 10:32:19;;;;;;;5.60;4.20;;;6.10;99.90;;;;;;5074061;28;20423;-38
2023/01/29 10:34:58;;;;;;;4.95;3.80;;;6.00;99.90;;;;;;5074299;28;20102;-42
2023/01/29 10:37:45;;;;;;;5.43;4.15;;;6.00;99.90;;;;;;5073636;28;20127;-35
2023/01/29 10:40:24;;;;;;;4.40;4.00;;;5.90;99.90;;;;;;5073762;28;20025;-42
2023/01/29 10:43:18;;;;;;;4.47;3.85;;;5.90;99.90;;;;;;5073807;28;20021;-34
2023/01/29 10:46:03;;;;;;;5.22;4.20;;;5.90;99.90;;;;;;5074170;28;20367;-38
2023/01/29 10:48:44;;;;;;;5.45;4.13;;;6.10;99.90;;;;;;5074772;28;20107;-32
2023/01/29 10:51:39;;;;;;;6.60;5.10;;;6.10;99.90;;;;;;5073961;28;20024;-42
2023/01/29 10:54:22;;;;;;;5.38;4.72;;;6.10;99.90;;;;;;5072293;28;20078;-37
2023/01/29 10:56:48;;;;;;;5.75;4.40;;;6.10;99.90;;;;;;5073253;28;20027;-34
2023/01/29 10:59:45;;;;;;;6.13;4.35;;;6.00;99.90;;;;;;5073292;28;20032;-31
2023/01/29 11:02:16;;;;;;;5.60;4.40;;;5.90;99.90;;;;;;5073920;28;20032;-41
2023/01/29 11:04:42;;;;;;;4.90;4.25;;;5.90;99.90;;;;;;5074361;28;20107;-40
2023/01/29 11:07:08;;;;;;;5.20;4.10;;;6.00;99.90;;;;;;5074256;28;20564;-40
2023/01/29 11:10:08;;;;;;;6.32;4.15;;;6.20;99.90;;;;;;5074048;28;20413;-33
2023/01/29 11:12:35;;;;;;;6.18;4.53;;;6.10;99.90;;;;;;5073215;28;20024;-34
2023/01/29 11:15:23;;;;;;;5.03;3.90;;;6.10;99.90;;;;;;5073067;28;20052;-36
2023/01/29 11:18:14;;;;;;;5.50;4.30;;;6.10;99.90;;;;;;5072906;28;20419;-33
2023/01/29 11:20:42;;;;;;;5.75;4.28;;;6.00;99.90;;;;;;5073354;28;20095;-32
2023/01/29 11:23:32;;;;;;;4.90;3.95;;;6.00;99.90;;;;;;5074024;28;20025;-41
2023/01/29 11:25:59;;;;;;;4.88;4.07;;;6.00;99.90;;;;;;5072803;28;20340;-42
2023/01/29 11:28:40;;;;;;;6.03;4.03;;;6.10;99.90;;;;;;5073446;28;20032;-42
2023/01/29 11:31:23;;;;;;;4.97;4.38;;;6.20;99.90;;;;;;5072610;28;20097;-35
2023/01/29 11:33:52;;;;;;;5.20;4.32;;;6.20;99.90;;;;;;5072542;28;20100;-39
2023/01/29 11:36:26;;;;;;;4.32;3.72;;;6.20;99.90;;;;;;5073188;28;20017;-38
2023/01/29 11:39:19;;;;;;;5.38;3.55;;;6.10;99.90;;;;;;5072471;28;20031;-39
2023/01/29 11:42:02;;;;;;;5.78;4.13;;;6.00;99.90;;;;;;5072218;28;20439;-35
2023/01/29 11:44:46;;;;;;;4.70;4.18;;;6.00;99.90;;;;;;5072957;28;20029;-35
2023/01/29 11:47:26;;;;;;;6.15;4.20;;;5.90;99.90;;;;;;5072608;28;20051;-42
2023/01/29 11:49:53;;;;;;;5.18;4.05;;;5.90;99.90;;;;;;5072689;28;20498;-31
2023/01/29 11:52:22;;;;;;;5.25;3.90;;;5.80;99.90;;;;;;5072368;28;20548;-40
2023/01/29 11:54:57;;;;;;;5.35;4.35;;;5.80;99.90;;;;;;5072177;28;20475;-31
2023/01/29 11:57:39;;;;;;;5.13;4.05;;;5.70;99.90;;;;;;5071931;28;20121;-39
2023/01/29 12:00:26;;;;;;;5.30;4.35;;;5.70;99.90;;;;;;5072344;28;20021;-38
2023/01/29 12:03:06;;;;;;;5.43;4.43;;;5.60;99.90;;;;;;5073418;28;20028;-40
2023/01/29 12:05:32;;;;;;;4.82;4.20;;;5.60;99.90;;;;;;5073189;28;20549;-41
2023/01/29 12:08:00;;;;;;;6.15;4.50;;;5.60;99.90;;;;;;5071838;28;20056;-40
2023/01/29 12:10:32;;;;;;;5.28;4.25;;;5.60;99.90;;;;;;5072069;28;20036;-38
2023/01/29 12:13:24;;;;;;;5.70;4.30;;;5.60;99.90;;;;;;5072951;28;20030;-40
2023/01/29 12:16:09;;;;;;;8.30;4.72;;;5.50;99.90;;;;;;5071726;28;20048;-37
2023/01/29 12:18:38;;;;;;;4.70;3.80;;;5.50;99.90;;;;;;5072259;28;20020;-33
2023/01/29 12:21:19;;;;;;;4.63;3.92;;;5.50;99.90;;;;;;5071760;28;20036;-35
2023/01/29 12:24:10;;;;;;;4.43;3.85;;;5.50;99.90;;;;;;5071759;28;20024;-39
2023/01/29 12:26:40;;;;;;;6.28;4.63;;;5.50;99.90;;;;;;5071569;28;20028;-37
2023/01/29 12:29:20;;;;;;;5.10;4.50;;;5.50;99.90;;;;;;5071509;28;20020;-33
2023/01/29 12:32:04;;;;;;;4.93;4.05;;;5.50;99.90;;;;;;5071913;28;20107;-32
2023/01/29 12:34:43;;;;;;;5.45;4.05;;;5.50;99.90;;;;;;5071443;28;20474;-32
2023/01/29 12:37:30;;;;;;;4.57;3.78;;;5.50;99.90;;;;;;5071250;28;20031;-36
2023/01/29 12:39:56;;;;;;;5.10;4.32;;;5.50;99.90;;;;;;5070900;28;20040;-37
2023/01/29 12:42:23;;;;;;;5.57;4.32;;;5.50;99.90;;;;;;5071512;28;20024;-32
2023/01/29 12:45:02;;;;;;;5.35;4.15;;;5.50;99.90;;;;;;5071451;28;20027;-35
2023/01/29 12:47:40;;;;;;;5.38;4.00;;;5.50;99.90;;;;;;5071386;28;20035;-33
2023/01/29 12:50:18;;;;;;;4.43;3.88;;;5.50;99.90;;;;;;5071317;28;20090;-32
2023/01/29 12:52:53;;;;;;;5.30;4.10;;;5.50;99.90;;;;;;5071748;28;20028;-34
2023/01/29 12:55:31;;;;;;;5.07;4.00;;;5.60;99.90;;;;;;5071264;28;20119;-37
2023/01/29 12:58:21;;;;;;;5.50;4.38;;;5.50;99.90;;;;;;5071176;28;20299;-34
2023/01/29 13:00:53;;;;;;;5.05;4.20;;;5.60;99.90;;;;;;5071275;28;20021;-35
2023/01/29 13:03:21;;;;;;;5.45;3.90;;;5.60;99.90;;;;;;5070747;28;20032;-42
2023/01/29 13:06:01;;;;;;;4.85;3.90;;;5.60;99.90;;;;;;5071839;28;20090;-32
2023/01/29 13:08:34;;;;;;;4.75;3.80;;;5.60;99.90;;;;;;5072010;28;20046;-40
2023/01/29 13:11:05;;;;;;;5.13;3.88;;;5.60;99.90;;;;;;5071434;28;20433;-42
2023/01/29 13:13:35;;;;;;;6.40;4.07;;;5.60;99.90;;;;;;5071433;28;20082;-41
2023/01/29 13:16:05;;;;;;;6.07;4.20;;;5.60;99.90;;;;;;5071308;28;20069;-36
2023/01/29 13:18:52;;;;;;;5.20;4.30;;;5.60;99.90;;;;;;5071423;28;20040;-41
2023/01/29 13:21:23;;;;;;;4.50;3.60;;;5.60;99.90;;;;;;5071115;28;20487;-34
2023/01/29 13:23:58;;;;;;;4.78;3.78;;;5.60;99.90;;;;;;5071120;28;20111;-36
2023/01/29 13:26:25;;;;;;;5.78;4.25;;;5.70;99.90;;;;;;5070849;28;20103;-40
2023/01/29 13:28:52;;;;;;;5.28;4.13;;;5.70;99.90;;;;;;5070917;28;20103;-42
2023/01/29 13:31:35;;;;;;;5.22;4.13;;;5.70;99.90;;;;;;5070941;28;20021;-35
2023/01/29 13:34:07;;;;;;;5.38;4.05;;;5.70;99.90;;;;;;5070809;28;20424;-33
2023/01/29 13:36:35;;;;;;;5.22;4.10;;;5.70;99.90;;;;;;5070921;28;20371;-34
2023/01/29 13:39:04;;;;;;;5.72;4.60;;;5.70;99.90;;;;;;5070842;28;20467;-39
2023/01/29 13:41:38;;;;;;;6.35;4.20;;;5.70;99.90;;;;;;5070725;28;20078;-33
2023/01/29 13:44:08;;;;;;;5.03;4.00;;;5.70;99.90;;;;;;5071125;28;20021;-39
2023/01/29 13:46:39;;;;;;;6.07;4.30;;;5.70;99.90;;;;;;5070756;28;20017;-42
2023/01/29 13:49:23;;;;;;;6.20;4.20;;;5.70;99.90;;;;;;5071085;28;20032;-36
2023/01/29 13:51:49;;;;;;;5.70;4.82;;;5.70;99.90;;;;;;5074581;28;20021;-31